This is the latest recevied weather packets stored in our database for station/object SQ9PDE-13. If no packets are shown the sender has not sent any weather packets the latest 10 day(s).
| Time | Temp. | Humidity | Pressure | Rain* | Wind** | Luminosity | Snow |
|---|---|---|---|---|---|---|---|
| 1787484648 | 19.44° C | 47% | 1022.2 hPa | - | - | - | - |
| 1787484347 | 20.56° C | 46% | 1022.1 hPa | - | - | - | - |
| 1787484047 | 20.56° C | 46% | 1022.1 hPa | - | - | - | - |
| 1787483746 | 20° C | 46% | 1022.1 hPa | - | - | - | - |
| 1787483446 | 20.56° C | 47% | 1022.1 hPa | - | - | - | - |
| 1787483145 | 21.11° C | 46% | 1022 hPa | - | - | - | - |
| 1787482844 | 21.67° C | 45% | 1021.9 hPa | - | - | - | - |
| 1787482544 | 20.56° C | 45% | 1022.1 hPa | - | - | - | - |
| 1787482243 | 20° C | 48% | 1022.2 hPa | - | - | - | - |
| 1787481943 | 20° C | 48% | 1022.2 hPa | - | - | - | - |
| 1787481642 | 20° C | 46% | 1022.1 hPa | - | - | - | - |
| 1787481342 | 21.11° C | 44% | 1022 hPa | - | - | - | - |
| 1787481041 | 20.56° C | 47% | 1022.2 hPa | - | - | - | - |
| 1787480741 | 20.56° C | 47% | 1022.2 hPa | - | - | - | - |
| 1787480440 | 21.67° C | 45% | 1021.9 hPa | - | - | - | - |
| 1787480140 | 21.11° C | 48% | 1022.2 hPa | - | - | - | - |
| 1787479839 | 21.67° C | 44% | 1022 hPa | - | - | - | - |
| 1787479539 | 21.11° C | 46% | 1022.2 hPa | - | - | - | - |
| 1787479238 | 22.22° C | 44% | 1022.1 hPa | - | - | - | - |
| 1787478938 | 22.22° C | 44% | 1022 hPa | - | - | - | - |
| 1787478637 | 22.22° C | 45% | 1021.9 hPa | - | - | - | - |
| 1787478337 | 20.56° C | 48% | 1022.2 hPa | - | - | - | - |
| 1787478036 | 21.11° C | 47% | 1022.2 hPa | - | - | - | - |
| 1787477736 | 21.67° C | 47% | 1022.1 hPa | - | - | - | - |
| 1787477435 | 23.33° C | 46% | 1021.9 hPa | - | - | - | - |
* Rain since midnight (hover to see other rain measurements)
** Current wind speed in m/s (hover to see current wind gust speed)